createdAt,value
2023-04-09T00:01:12.665Z,53.58
2023-04-09T00:03:41.221Z,54.39
2023-04-09T00:06:12.314Z,54.92
2023-04-09T00:09:15.701Z,56.09
2023-04-09T00:11:43.810Z,57.27
2023-04-09T00:14:11.975Z,57.46
2023-04-09T00:16:40.677Z,57.95
2023-04-09T00:19:08.712Z,58.64
2023-04-09T00:21:39.211Z,59.23
2023-04-09T00:24:07.999Z,59.62
2023-04-09T00:26:36.547Z,60.05
2023-04-09T00:29:07.932Z,60.17
2023-04-09T00:31:36.289Z,60.46
2023-04-09T00:34:07.469Z,60.69
2023-04-09T00:36:35.408Z,61.10
2023-04-09T00:39:09.250Z,61.21
2023-04-09T00:41:39.901Z,61.60
2023-04-09T00:44:07.963Z,61.51
2023-04-09T00:46:38.705Z,61.94
2023-04-09T00:49:06.847Z,62.10
2023-04-09T00:51:36.932Z,62.20
2023-04-09T00:54:05.649Z,63.75
2023-04-09T00:56:34.691Z,62.84
2023-04-09T00:59:05.969Z,62.74
2023-04-09T01:01:34.260Z,57.94
2023-04-09T01:04:02.578Z,54.20
2023-04-09T01:06:43.999Z,54.51
2023-04-09T01:09:22.845Z,55.88
2023-04-09T01:12:12.090Z,57.45
2023-04-09T01:14:57.492Z,58.07
2023-04-09T01:17:38.274Z,57.99
2023-04-09T01:20:15.491Z,59.43
2023-04-09T01:23:37.014Z,60.03
2023-04-09T01:26:19.355Z,60.29
2023-04-09T01:29:00.465Z,61.49
2023-04-09T01:31:34.626Z,61.68
2023-04-09T01:34:12.889Z,61.86
2023-04-09T01:36:45.878Z,63.95
2023-04-09T01:39:33.183Z,64.18
2023-04-09T01:42:11.013Z,60.62
2023-04-09T01:44:42.787Z,55.64
2023-04-09T01:47:11.504Z,53.70
2023-04-09T01:49:45.234Z,54.71
2023-04-09T01:52:13.936Z,56.33
2023-04-09T01:54:43.208Z,57.76
2023-04-09T01:57:11.390Z,58.22
2023-04-09T01:59:39.865Z,59.58
2023-04-09T02:02:24.759Z,59.67
2023-04-09T02:04:54.368Z,59.85
2023-04-09T02:07:39.335Z,60.94
2023-04-09T02:10:13.434Z,61.24
2023-04-09T02:12:49.418Z,61.67
2023-04-09T02:15:19.340Z,63.46
2023-04-09T02:17:47.771Z,66.95
2023-04-09T02:20:19.638Z,63.45
2023-04-09T02:22:48.435Z,57.05
2023-04-09T02:25:16.303Z,54.64
2023-04-09T02:27:44.189Z,55.79
2023-04-09T02:30:12.200Z,56.25
2023-04-09T02:32:40.415Z,57.24
2023-04-09T02:35:08.918Z,59.21
2023-04-09T02:37:36.876Z,59.74
2023-04-09T02:40:05.323Z,60.51
2023-04-09T02:42:33.220Z,60.75
2023-04-09T02:45:04.414Z,61.61
2023-04-09T02:47:36.261Z,64.35
2023-04-09T02:50:05.244Z,65.89
2023-04-09T02:52:35.731Z,60.87
2023-04-09T02:55:07.256Z,56.26
2023-04-09T02:57:37.303Z,53.58
2023-04-09T03:00:05.987Z,54.56
2023-04-09T03:02:43.701Z,55.32
2023-04-09T03:05:12.261Z,56.78
2023-04-09T03:07:40.468Z,57.41
2023-04-09T03:10:11.906Z,58.56
2023-04-09T03:12:55.291Z,58.86
2023-04-09T03:15:23.940Z,59.36
2023-04-09T03:17:52.285Z,59.89
2023-04-09T03:20:34.996Z,60.85
2023-04-09T03:23:03.744Z,60.85
2023-04-09T03:25:36.837Z,61.51
2023-04-09T03:28:12.636Z,64.88
2023-04-09T03:30:43.488Z,65.55
2023-04-09T03:33:11.602Z,60.90
2023-04-09T03:35:52.542Z,55.16
2023-04-09T03:38:28.206Z,54.02
2023-04-09T03:40:57.146Z,54.73
2023-04-09T03:43:28.268Z,55.54
2023-04-09T03:45:56.441Z,56.30
2023-04-09T03:48:27.030Z,57.60
2023-04-09T03:51:04.691Z,57.59
2023-04-09T03:53:37.853Z,58.22
2023-04-09T03:56:07.973Z,58.84
2023-04-09T03:58:39.665Z,59.54
2023-04-09T04:01:08.545Z,59.84
2023-04-09T04:03:43.644Z,60.36
2023-04-09T04:06:38.331Z,60.44
2023-04-09T04:09:35.601Z,60.65
2023-04-09T04:12:07.492Z,61.12
2023-04-09T04:14:51.046Z,61.40
2023-04-09T04:17:31.711Z,61.66
2023-04-09T04:20:01.509Z,61.93
2023-04-09T04:22:33.253Z,64.20
2023-04-09T04:25:03.840Z,67.95
2023-04-09T04:27:31.938Z,62.48
2023-04-09T04:30:02.122Z,56.42
2023-04-09T04:32:51.117Z,53.92
2023-04-09T04:35:21.836Z,54.92
2023-04-09T04:37:53.325Z,55.69
2023-04-09T04:40:24.899Z,56.72
2023-04-09T04:43:00.518Z,56.59
2023-04-09T04:45:35.076Z,57.94
2023-04-09T04:48:09.482Z,58.94
2023-04-09T04:50:38.332Z,59.24
2023-04-09T04:53:10.069Z,59.83
2023-04-09T04:55:46.267Z,60.14
2023-04-09T04:58:16.607Z,60.89
2023-04-09T05:00:49.271Z,61.27
2023-04-09T05:03:18.158Z,61.65
2023-04-09T05:06:06.076Z,65.38
2023-04-09T05:08:45.086Z,66.15
2023-04-09T05:11:15.117Z,60.36
2023-04-09T05:13:43.515Z,54.34
2023-04-09T05:16:21.085Z,52.98
2023-04-09T05:18:55.233Z,53.95
2023-04-09T05:21:27.649Z,54.72
2023-04-09T05:23:57.734Z,55.74
2023-04-09T05:26:27.418Z,56.08
2023-04-09T05:28:58.696Z,56.84
2023-04-09T05:31:27.227Z,57.96
2023-04-09T05:34:16.501Z,58.32
2023-04-09T05:36:47.932Z,59.00
2023-04-09T05:39:18.984Z,59.98
2023-04-09T05:41:56.836Z,60.28
2023-04-09T05:44:27.765Z,60.76
2023-04-09T05:47:18.973Z,61.28
2023-04-09T05:49:59.767Z,65.30
2023-04-09T05:52:28.810Z,66.72
2023-04-09T05:55:06.796Z,61.64
2023-04-09T05:57:48.085Z,56.16
2023-04-09T06:00:25.757Z,54.13
2023-04-09T06:02:53.799Z,55.20
2023-04-09T06:05:22.180Z,56.45
2023-04-09T06:07:50.681Z,57.25
2023-04-09T06:10:18.746Z,58.70
2023-04-09T06:12:48.524Z,59.42
2023-04-09T06:15:19.963Z,60.07
2023-04-09T06:17:48.379Z,60.35
2023-04-09T06:20:17.308Z,61.22
2023-04-09T06:22:48.379Z,64.01
2023-04-09T06:25:17.157Z,66.74
2023-04-09T06:27:45.222Z,62.79
2023-04-09T06:30:35.876Z,57.76
2023-04-09T06:33:03.788Z,55.44
2023-04-09T06:35:37.101Z,56.16
2023-04-09T06:38:05.371Z,57.13
2023-04-09T06:40:33.580Z,58.59
2023-04-09T06:43:01.970Z,59.10
2023-04-09T06:45:39.113Z,59.77
2023-04-09T06:48:09.265Z,60.91
2023-04-09T06:50:46.864Z,61.33
2023-04-09T06:53:15.673Z,65.97
2023-04-09T06:55:46.615Z,66.33
2023-04-09T06:58:14.456Z,62.89
2023-04-09T07:00:42.781Z,57.17
2023-04-09T07:03:11.488Z,54.86
2023-04-09T07:05:39.682Z,55.43
2023-04-09T07:08:08.032Z,56.96
2023-04-09T07:10:38.451Z,58.28
2023-04-09T07:13:06.759Z,58.84
2023-04-09T07:15:34.976Z,59.09
2023-04-09T07:18:03.316Z,59.79
2023-04-09T07:20:34.345Z,60.40
2023-04-09T07:23:02.576Z,60.80
2023-04-09T07:25:33.211Z,61.12
2023-04-09T07:28:44.353Z,61.52
2023-04-09T07:31:24.200Z,66.18
2023-04-09T07:33:55.441Z,68.24
2023-04-09T07:36:26.686Z,59.30
2023-04-09T07:38:57.747Z,54.65
2023-04-09T07:41:25.991Z,55.40
2023-04-09T07:43:54.051Z,57.20
2023-04-09T07:46:22.357Z,58.21
2023-04-09T07:48:51.081Z,59.62
2023-04-09T07:51:22.266Z,60.48
2023-04-09T07:53:50.679Z,61.59
2023-04-09T07:56:22.427Z,65.72
2023-04-09T07:58:51.421Z,64.16
2023-04-09T13:02:36.657Z,70.36
2023-04-09T13:05:05.546Z,70.86
2023-04-09T13:07:33.476Z,70.56
2023-04-09T13:10:01.689Z,70.57
2023-04-09T13:12:30.243Z,68.03
2023-04-09T13:14:59.239Z,67.56
2023-04-09T13:17:27.439Z,64.52
2023-04-09T13:19:55.630Z,60.28
2023-04-09T13:22:23.684Z,56.15
2023-04-09T13:24:51.531Z,56.41
2023-04-09T13:27:19.402Z,56.70
2023-04-09T13:29:47.380Z,58.23
2023-04-09T13:32:15.604Z,58.74
2023-04-09T13:34:43.526Z,59.86
2023-04-09T13:37:11.777Z,60.96
2023-04-09T13:39:39.784Z,61.69
2023-04-09T13:42:13.736Z,65.69
2023-04-09T13:44:45.098Z,67.25
2023-04-09T13:47:13.645Z,61.83
2023-04-09T13:49:42.429Z,58.92
2023-04-09T13:52:10.863Z,56.28
2023-04-09T13:54:38.776Z,57.34
2023-04-09T13:57:06.953Z,58.51
2023-04-09T13:59:34.866Z,59.26
2023-04-09T14:02:02.957Z,60.66
2023-04-09T14:04:34.719Z,61.60
2023-04-09T14:07:02.625Z,63.80
2023-04-09T14:09:30.669Z,65.97
2023-04-09T14:11:58.702Z,61.65
2023-04-09T14:14:26.633Z,57.40
2023-04-09T14:16:55.560Z,56.04
2023-04-09T14:19:24.270Z,57.15
2023-04-09T14:21:53.362Z,57.96
2023-04-09T14:24:23.194Z,59.27
2023-04-09T14:26:53.489Z,60.13
2023-04-09T14:29:22.175Z,60.89
2023-04-09T14:31:50.731Z,61.73
2023-04-09T14:34:18.703Z,65.83
2023-04-09T14:36:47.193Z,66.65
2023-04-09T14:39:15.954Z,62.57
2023-04-09T14:41:43.873Z,59.67
2023-04-09T14:44:14.680Z,56.02
2023-04-09T14:46:43.443Z,55.50
2023-04-09T14:49:11.382Z,56.71
2023-04-09T14:51:39.509Z,57.87
2023-04-09T14:54:07.391Z,59.18
2023-04-09T14:56:35.415Z,60.09
2023-04-09T14:59:06.225Z,61.29
2023-04-09T15:01:34.309Z,64.85
2023-04-09T15:04:02.730Z,65.91
2023-04-09T15:06:32.348Z,62.13
2023-04-09T15:09:00.738Z,58.13
2023-04-09T15:11:29.545Z,57.02
2023-04-09T15:13:58.073Z,57.71
2023-04-09T15:16:27.687Z,58.53
2023-04-09T15:18:57.811Z,59.08
2023-04-09T15:21:27.181Z,60.45
2023-04-09T15:23:56.319Z,61.55
2023-04-09T15:26:24.501Z,65.94
2023-04-09T15:28:53.709Z,65.68
2023-04-09T15:31:21.801Z,61.45
2023-04-09T15:33:50.419Z,58.08
2023-04-09T15:36:18.399Z,56.94
2023-04-09T15:38:46.471Z,58.97
2023-04-09T15:41:16.922Z,59.63
2023-04-09T15:43:44.788Z,60.31
2023-04-09T15:46:12.872Z,61.66
2023-04-09T15:48:41.728Z,65.20
2023-04-09T15:51:10.176Z,66.67
2023-04-09T15:53:38.058Z,63.03
2023-04-09T15:56:06.538Z,59.74
2023-04-09T15:58:36.234Z,57.21
2023-04-09T16:01:11.056Z,56.49
2023-04-09T16:03:41.891Z,57.73
2023-04-09T16:06:13.508Z,58.90
2023-04-09T16:08:41.759Z,59.92
2023-04-09T16:11:10.602Z,61.74
2023-04-09T16:13:38.477Z,64.32
2023-04-09T16:16:07.473Z,63.58
2023-04-09T16:18:36.015Z,61.66
2023-04-09T16:21:04.348Z,59.94
2023-04-09T16:23:33.064Z,57.46
2023-04-09T16:26:01.229Z,56.50
2023-04-09T16:28:29.053Z,57.75
2023-04-09T16:30:59.264Z,59.43
2023-04-09T16:33:27.626Z,60.15
2023-04-09T16:35:55.690Z,61.12
2023-04-09T16:38:24.774Z,61.46
2023-04-09T16:40:55.118Z,64.70
2023-04-09T16:43:22.959Z,66.79
2023-04-09T16:45:52.329Z,62.73
2023-04-09T16:48:20.997Z,60.48
2023-04-09T16:50:49.283Z,57.04
2023-04-09T16:53:17.183Z,56.42
2023-04-09T16:55:45.177Z,57.70
2023-04-09T16:58:13.385Z,58.67
2023-04-09T17:00:42.116Z,59.48
2023-04-09T17:03:12.617Z,60.91
2023-04-09T17:05:40.483Z,61.89
2023-04-09T17:08:08.479Z,66.21
2023-04-09T17:10:37.114Z,65.10
2023-04-09T17:13:14.910Z,63.14
2023-04-09T17:15:43.829Z,60.38
2023-04-09T17:18:12.244Z,56.59
2023-04-09T17:20:40.740Z,55.78
2023-04-09T17:23:08.989Z,56.97
2023-04-09T17:25:37.044Z,57.95
2023-04-09T17:28:05.028Z,59.10
2023-04-09T17:30:33.399Z,59.65
2023-04-09T17:33:01.838Z,60.61
2023-04-09T17:35:30.259Z,61.16
2023-04-09T17:37:58.892Z,64.14
2023-04-09T17:40:28.263Z,66.32
2023-04-09T17:42:56.510Z,63.60
2023-04-09T17:45:25.427Z,60.66
2023-04-09T17:47:53.499Z,58.02
2023-04-09T17:53:03.831Z,57.86
2023-04-09T17:55:32.369Z,59.31
2023-04-09T17:58:00.511Z,59.94
2023-04-09T18:00:28.522Z,60.84
2023-04-09T18:02:57.643Z,61.70
2023-04-09T18:05:27.653Z,65.20
2023-04-09T18:07:56.876Z,65.31
2023-04-09T18:10:25.402Z,63.35
2023-04-09T18:12:53.610Z,61.51
2023-04-09T18:15:22.645Z,59.60
2023-04-09T18:17:51.567Z,56.92
2023-04-09T18:20:19.599Z,56.85
2023-04-09T18:22:47.574Z,58.21
2023-04-09T18:25:15.879Z,59.26
2023-04-09T18:27:46.774Z,60.28
2023-04-09T18:30:14.683Z,61.41
2023-04-09T18:32:43.491Z,65.03
2023-04-09T18:35:12.224Z,65.31
2023-04-09T18:37:40.568Z,62.03
2023-04-09T18:40:15.500Z,59.77
2023-04-09T18:42:46.530Z,56.68
2023-04-09T18:45:16.686Z,56.36
2023-04-09T18:47:45.364Z,57.56
2023-04-09T18:50:18.213Z,58.86
2023-04-09T18:52:46.244Z,59.74
2023-04-09T18:55:14.810Z,60.62
2023-04-09T18:57:44.239Z,61.58
2023-04-09T19:00:12.986Z,65.73
2023-04-09T19:02:41.118Z,65.59
2023-04-09T19:05:09.661Z,61.86
2023-04-09T19:07:37.972Z,59.71
2023-04-09T19:10:06.604Z,56.87
2023-04-09T19:12:34.537Z,56.38
2023-04-09T19:15:07.032Z,57.65
2023-04-09T19:17:35.039Z,58.92
2023-04-09T19:20:04.430Z,59.82
2023-04-09T19:22:32.933Z,60.57
2023-04-09T19:25:00.903Z,61.32
2023-04-09T19:27:28.974Z,65.36
2023-04-09T19:29:58.855Z,65.21
2023-04-09T19:32:27.278Z,61.41
2023-04-09T19:34:58.696Z,57.52
2023-04-09T19:37:28.853Z,56.27
2023-04-09T19:39:58.158Z,57.38
2023-04-09T19:42:28.754Z,58.68
2023-04-09T19:44:57.342Z,59.81
2023-04-09T19:47:27.407Z,60.67
2023-04-09T19:49:55.589Z,61.41
2023-04-09T19:52:23.793Z,65.04
2023-04-09T19:54:56.420Z,65.55
2023-04-09T19:57:26.561Z,62.49
2023-04-09T19:59:55.265Z,60.24
2023-04-09T20:02:24.101Z,56.69
2023-04-09T20:04:52.571Z,56.28
2023-04-09T20:07:20.897Z,57.46
2023-04-09T20:09:49.718Z,58.79
2023-04-09T20:12:17.724Z,59.73
2023-04-09T20:14:46.645Z,60.61
2023-04-09T20:17:14.553Z,61.32
2023-04-09T20:19:42.471Z,64.78
2023-04-09T20:22:10.496Z,65.06
2023-04-09T20:24:38.512Z,61.70
2023-04-09T20:27:06.530Z,59.70
2023-04-09T20:29:34.722Z,57.98
2023-04-09T20:32:03.609Z,57.35
2023-04-09T20:34:32.602Z,58.06
2023-04-09T20:37:00.539Z,59.28
2023-04-09T20:39:30.476Z,60.42
2023-04-09T20:41:58.702Z,61.35
2023-04-09T20:44:29.023Z,64.88
2023-04-09T20:46:57.039Z,65.19
2023-04-09T20:49:29.802Z,62.13
2023-04-09T20:51:58.393Z,60.08
2023-04-09T20:54:29.866Z,56.46
2023-04-09T20:56:57.952Z,55.76
2023-04-09T20:59:26.429Z,56.87
2023-04-09T21:01:57.612Z,58.07
2023-04-09T21:04:26.121Z,59.04
2023-04-09T21:06:54.517Z,59.86
2023-04-09T21:09:22.448Z,61.05
2023-04-09T21:11:50.536Z,66.26
2023-04-09T21:14:18.442Z,65.93
2023-04-09T21:16:46.488Z,61.01
2023-04-09T21:19:14.567Z,57.09
2023-04-09T21:21:42.626Z,56.11
2023-04-09T21:24:10.511Z,57.17
2023-04-09T21:26:49.533Z,58.19
2023-04-09T21:29:21.258Z,59.62
2023-04-09T21:31:49.973Z,60.90
2023-04-09T21:34:17.848Z,61.76
2023-04-09T21:36:46.281Z,65.86
2023-04-09T21:39:14.433Z,65.75
2023-04-09T21:41:42.457Z,62.23
2023-04-09T21:44:10.529Z,58.32
2023-04-09T21:46:40.701Z,57.23
2023-04-09T21:49:08.927Z,57.98
2023-04-09T21:51:37.506Z,58.52
2023-04-09T21:54:07.104Z,60.12
2023-04-09T21:56:35.969Z,61.51
2023-04-09T21:59:04.043Z,64.94
2023-04-09T22:01:33.609Z,65.49
2023-04-09T22:04:02.097Z,61.10
2023-04-09T22:06:31.287Z,56.24
2023-04-09T22:09:00.043Z,55.70
2023-04-09T22:11:28.647Z,57.11
2023-04-09T22:13:57.533Z,58.13
2023-04-09T22:16:26.401Z,59.20
2023-04-09T22:18:54.797Z,60.23
2023-04-09T22:21:23.202Z,61.25
2023-04-09T22:23:51.529Z,64.85
2023-04-09T22:26:19.999Z,65.29
2023-04-09T22:28:48.067Z,62.25
2023-04-09T22:31:16.902Z,59.52
2023-04-09T22:33:44.799Z,55.99
2023-04-09T22:36:12.800Z,56.01
2023-04-09T22:38:40.695Z,57.23
2023-04-09T22:41:08.563Z,58.56
2023-04-09T22:43:37.222Z,59.58
2023-04-09T22:46:06.039Z,60.27
2023-04-09T22:48:40.829Z,60.94
2023-04-09T22:51:13.749Z,64.71
2023-04-09T22:53:42.014Z,65.02
2023-04-09T22:56:10.070Z,62.22
2023-04-09T22:58:38.476Z,59.89
2023-04-09T23:01:06.901Z,55.83
2023-04-09T23:03:35.012Z,55.13
2023-04-09T23:06:03.126Z,56.37
2023-04-09T23:08:31.313Z,57.63
2023-04-09T23:10:59.168Z,58.73
2023-04-09T23:13:27.173Z,59.75
2023-04-09T23:15:55.139Z,60.39
2023-04-09T23:18:23.064Z,60.87
2023-04-09T23:20:51.236Z,61.48
2023-04-09T23:23:19.284Z,61.83
2023-04-09T23:25:47.109Z,66.19
2023-04-09T23:28:15.041Z,65.71
2023-04-09T23:30:43.988Z,62.54
2023-04-09T23:33:11.851Z,60.64
2023-04-09T23:35:39.955Z,56.36
2023-04-09T23:38:08.067Z,56.01
2023-04-09T23:40:36.000Z,57.22
2023-04-09T23:43:04.673Z,58.24
2023-04-09T23:45:32.520Z,59.16
2023-04-09T23:48:00.911Z,59.60
2023-04-09T23:50:29.069Z,60.40
2023-04-09T23:53:03.406Z,60.93
2023-04-09T23:55:33.552Z,61.91
2023-04-09T23:58:01.651Z,66.03
